createdAt,value
2019-01-08T00:01:12.987Z,101216.37
2019-01-08T00:03:41.186Z,101211.77
2019-01-08T00:06:09.403Z,101204.40
2019-01-08T00:08:37.607Z,101201.53
2019-01-08T00:11:05.834Z,101203.31
2019-01-08T00:13:34.032Z,101187.05
2019-01-08T00:16:02.340Z,101182.47
2019-01-08T00:18:30.566Z,101177.66
2019-01-08T00:20:58.768Z,101188.16
2019-01-08T00:23:26.982Z,101182.82
2019-01-08T00:25:55.190Z,101180.23
2019-01-08T00:28:23.396Z,101164.45
2019-01-08T00:30:51.605Z,101162.22
2019-01-08T00:33:19.839Z,101149.47
2019-01-08T00:35:48.039Z,101149.47
2019-01-08T00:38:16.266Z,101139.45
2019-01-08T00:40:44.486Z,101134.00
2019-01-08T00:43:12.710Z,101138.58
2019-01-08T00:45:40.910Z,101117.80
2019-01-08T00:48:09.110Z,101115.77
2019-01-08T00:50:37.335Z,101112.84
2019-01-08T00:53:05.572Z,101108.02
2019-01-08T00:55:33.770Z,101100.94
2019-01-08T00:58:01.966Z,101089.77
2019-01-08T01:00:30.202Z,101088.54
2019-01-08T01:02:58.393Z,101080.02
2019-01-08T01:05:26.596Z,101065.05
2019-01-08T01:07:54.824Z,101082.25
2019-01-08T01:10:23.026Z,101075.58
2019-01-08T01:12:51.246Z,101068.39
2019-01-08T01:15:19.448Z,101058.86
2019-01-08T01:17:47.686Z,101062.31
2019-01-08T01:20:15.876Z,101056.14
2019-01-08T01:22:44.113Z,101046.16
2019-01-08T01:25:12.338Z,101053.06
2019-01-08T01:27:40.547Z,101035.79
2019-01-08T01:30:08.950Z,101040.71
2019-01-08T01:32:37.166Z,101041.09
2019-01-08T01:35:05.550Z,101033.21
2019-01-08T01:37:33.750Z,101023.39
2019-01-08T01:40:01.972Z,101028.56
2019-01-08T01:42:30.181Z,101021.12
2019-01-08T01:44:58.412Z,101011.34
2019-01-08T01:47:26.612Z,101008.27
2019-01-08T01:49:54.816Z,101001.75
2019-01-08T01:52:23.024Z,100997.42
2019-01-08T01:54:51.228Z,100983.11
2019-01-08T01:57:19.454Z,100982.83
2019-01-08T01:59:47.648Z,100955.22
2019-01-08T02:02:15.887Z,100956.97
2019-01-08T02:04:44.101Z,100950.16
2019-01-08T02:07:12.336Z,100944.27
2019-01-08T02:09:40.542Z,100946.07
2019-01-08T02:12:08.873Z,100940.91
2019-01-08T02:14:37.090Z,100943.34
2019-01-08T02:17:05.324Z,100932.08
2019-01-08T02:19:33.533Z,100915.11
2019-01-08T02:22:01.749Z,100913.39
2019-01-08T02:24:29.977Z,100907.22
2019-01-08T02:26:58.176Z,100901.14
2019-01-08T02:29:26.410Z,100902.13
2019-01-08T02:31:54.632Z,100900.27
2019-01-08T02:34:22.838Z,100892.97
2019-01-08T02:36:51.054Z,100884.52
2019-01-08T02:39:19.263Z,100881.94
2019-01-08T02:41:47.544Z,100881.79
2019-01-08T02:44:15.854Z,100882.77
2019-01-08T02:46:44.326Z,100868.95
2019-01-08T02:49:12.635Z,100870.91
2019-01-08T02:51:40.858Z,100864.81
2019-01-08T02:54:09.045Z,100862.36
2019-01-08T02:56:37.271Z,100858.94
2019-01-08T02:59:05.472Z,100855.05
2019-01-08T03:01:33.701Z,100848.39
2019-01-08T03:04:01.938Z,100841.30
2019-01-08T03:06:30.148Z,100842.60
2019-01-08T03:08:58.348Z,100833.42
2019-01-08T03:11:26.565Z,100815.08
2019-01-08T03:13:54.773Z,100820.59
2019-01-08T03:16:23.002Z,100812.65
2019-01-08T03:18:51.201Z,100808.86
2019-01-08T03:21:19.424Z,100804.83
2019-01-08T03:23:47.623Z,100805.46
2019-01-08T03:26:15.853Z,100798.11
2019-01-08T03:28:44.077Z,100790.00
2019-01-08T03:31:12.287Z,100789.84
2019-01-08T03:33:40.517Z,100791.21
2019-01-08T03:36:08.803Z,100785.77
2019-01-08T03:38:37.007Z,100776.58
2019-01-08T03:41:05.221Z,100781.19
2019-01-08T03:43:33.441Z,100777.45
2019-01-08T03:46:01.645Z,100764.91
2019-01-08T03:48:29.869Z,100775.22
2019-01-08T03:50:58.117Z,100770.79
2019-01-08T03:53:26.337Z,100773.52
2019-01-08T03:55:54.565Z,100764.85
2019-01-08T03:58:22.781Z,100770.79
2019-01-08T04:00:51.003Z,100767.72
2019-01-08T04:03:19.199Z,100759.55
2019-01-08T04:05:47.433Z,100759.90
2019-01-08T04:08:15.648Z,100761.75
2019-01-08T04:10:43.842Z,100748.44
2019-01-08T04:13:12.071Z,100747.98
2019-01-08T04:15:40.273Z,100737.77
2019-01-08T04:18:08.489Z,100733.16
2019-01-08T04:20:36.716Z,100730.14
2019-01-08T04:23:04.920Z,100715.31
2019-01-08T04:25:33.151Z,100726.20
2019-01-08T04:28:01.353Z,100718.71
2019-01-08T04:30:29.569Z,100714.63
2019-01-08T04:32:57.761Z,100706.45
2019-01-08T04:35:25.987Z,100707.82
2019-01-08T04:37:54.203Z,100704.08
2019-01-08T04:40:22.450Z,100704.72
2019-01-08T04:42:50.636Z,100695.91
2019-01-08T04:45:18.843Z,100685.89
2019-01-08T04:47:47.068Z,100681.42
2019-01-08T04:50:15.282Z,100673.11
2019-01-08T04:52:43.577Z,100671.41
2019-01-08T04:55:11.811Z,100672.42
2019-01-08T04:57:40.008Z,100662.37
2019-01-08T05:00:10.075Z,100652.16
2019-01-08T05:02:38.275Z,100652.69
2019-01-08T05:05:06.501Z,100650.83
2019-01-08T05:07:34.690Z,100650.27
2019-01-08T05:10:02.912Z,100646.56
2019-01-08T05:12:31.153Z,100656.23
2019-01-08T05:14:59.366Z,100651.48
2019-01-08T05:17:27.594Z,100658.28
2019-01-08T05:19:55.815Z,100656.92
2019-01-08T05:22:24.010Z,100656.12
2019-01-08T05:24:52.216Z,100659.88
2019-01-08T05:27:20.442Z,100654.05
2019-01-08T05:29:48.663Z,100661.38
2019-01-08T05:32:16.873Z,100662.94
2019-01-08T05:34:45.112Z,100654.58
2019-01-08T05:37:13.316Z,100653.70
2019-01-08T05:39:41.522Z,100650.53
2019-01-08T05:42:09.745Z,100659.23
2019-01-08T05:44:37.975Z,100654.05
2019-01-08T05:47:06.192Z,100654.42
2019-01-08T05:49:34.402Z,100650.34
2019-01-08T05:52:02.630Z,100642.66
2019-01-08T05:54:30.830Z,100645.39
2019-01-08T05:56:59.050Z,100647.24
2019-01-08T05:59:27.253Z,100650.69
2019-01-08T06:01:55.473Z,100645.95
2019-01-08T06:04:23.668Z,100639.15
2019-01-08T06:06:51.917Z,100637.30
2019-01-08T06:09:20.129Z,100637.30
2019-01-08T06:11:48.346Z,100637.45
2019-01-08T06:14:16.587Z,100638.13
2019-01-08T06:16:44.805Z,100635.70
2019-01-08T06:19:13.012Z,100637.79
2019-01-08T06:21:41.221Z,100634.05
2019-01-08T06:24:09.462Z,100635.56
2019-01-08T06:26:37.658Z,100628.60
2019-01-08T06:29:05.864Z,100628.26
2019-01-08T06:31:34.069Z,100627.54
2019-01-08T06:34:02.299Z,100629.28
2019-01-08T06:36:30.513Z,100630.27
2019-01-08T06:38:58.734Z,100625.19
2019-01-08T06:41:26.924Z,100626.89
2019-01-08T06:43:55.166Z,100630.64
2019-01-08T06:46:23.372Z,100630.48
2019-01-08T06:48:51.576Z,100634.05
2019-01-08T06:51:19.815Z,100639.19
2019-01-08T06:53:48.050Z,100637.14
2019-01-08T06:56:16.248Z,100641.91
2019-01-08T06:58:44.486Z,100646.52
2019-01-08T07:01:12.700Z,100643.58
2019-01-08T07:03:40.896Z,100648.88
2019-01-08T07:06:09.108Z,100643.95
2019-01-08T07:08:37.318Z,100648.38
2019-01-08T07:11:05.548Z,100643.42
2019-01-08T07:13:33.770Z,100640.70
2019-01-08T07:16:01.972Z,100647.51
2019-01-08T07:18:30.278Z,100645.50
2019-01-08T07:20:58.484Z,100637.83
2019-01-08T07:23:26.707Z,100634.77
2019-01-08T07:25:54.914Z,100631.89
2019-01-08T07:28:23.120Z,100616.05
2019-01-08T07:30:51.360Z,100623.37
2019-01-08T07:33:19.572Z,100627.95
2019-01-08T07:35:47.796Z,100618.08
2019-01-08T07:38:16.019Z,100622.36
2019-01-08T07:40:44.220Z,100616.91
2019-01-08T07:43:12.446Z,100602.42
2019-01-08T07:45:40.674Z,100597.35
2019-01-08T07:48:08.868Z,100593.27
2019-01-08T07:50:37.098Z,100591.91
2019-01-08T07:53:05.316Z,100587.67
2019-01-08T07:55:33.544Z,100598.56
2019-01-08T07:58:01.733Z,100591.38
2019-01-08T08:00:29.952Z,100602.65
2019-01-08T08:02:58.168Z,100599.77
2019-01-08T08:05:26.356Z,100597.55
2019-01-08T08:07:54.604Z,100598.26
2019-01-08T08:10:22.796Z,100592.97
2019-01-08T08:12:51.014Z,100601.81
2019-01-08T08:15:19.222Z,100603.92
2019-01-08T08:17:47.517Z,100597.73
2019-01-08T08:20:15.727Z,100593.91
2019-01-08T08:22:43.954Z,100601.20
2019-01-08T08:25:12.172Z,100597.46
2019-01-08T08:27:40.398Z,100597.53
2019-01-08T08:30:09.371Z,100585.77
2019-01-08T08:32:37.580Z,100587.62
2019-01-08T08:35:08.673Z,100589.85
2019-01-08T08:37:35.984Z,100584.62
2019-01-08T08:40:05.964Z,100576.45
2019-01-08T08:42:34.178Z,100585.30
2019-01-08T08:45:02.404Z,100581.75
2019-01-08T08:47:30.593Z,100585.68
2019-01-08T08:49:58.826Z,100592.83
2019-01-08T08:52:27.024Z,100586.89
2019-01-08T08:54:55.252Z,100583.95
2019-01-08T08:57:23.476Z,100586.36
2019-01-08T08:59:51.696Z,100590.45
2019-01-08T09:02:19.906Z,100595.73
2019-01-08T09:04:48.135Z,100601.41
2019-01-08T09:07:16.347Z,100596.80
2019-01-08T09:09:44.562Z,100602.77
2019-01-08T09:12:12.791Z,100598.69
2019-01-08T09:14:41.002Z,100604.13
2019-01-08T09:17:09.209Z,100604.47
2019-01-08T09:19:37.445Z,100605.34
2019-01-08T09:22:05.652Z,100590.70
2019-01-08T09:24:33.840Z,100583.39
2019-01-08T09:27:02.065Z,100580.92
2019-01-08T09:29:31.803Z,100580.52
2019-01-08T09:32:00.188Z,100574.20
2019-01-08T09:34:28.392Z,100566.73
2019-01-08T09:36:56.612Z,100566.21
2019-01-08T09:39:24.803Z,100571.66
2019-01-08T09:41:53.039Z,100568.59
2019-01-08T09:44:21.240Z,100563.64
2019-01-08T09:46:49.455Z,100557.36
2019-01-08T09:49:17.674Z,100556.48
2019-01-08T09:51:45.882Z,100547.98
2019-01-08T09:54:14.086Z,100547.11
2019-01-08T09:56:42.283Z,100544.54
2019-01-08T09:59:10.509Z,100547.61
2019-01-08T10:01:38.707Z,100538.07
2019-01-08T10:04:06.905Z,100547.27
2019-01-08T10:06:35.131Z,100538.23
2019-01-08T10:09:05.088Z,100543.52
2019-01-08T10:11:33.401Z,100548.63
2019-01-08T10:14:01.603Z,100536.21
2019-01-08T10:16:29.833Z,100529.90
2019-01-08T10:18:58.046Z,100545.25
2019-01-08T10:21:26.273Z,100536.37
2019-01-08T10:23:54.487Z,100534.67
2019-01-08T10:26:22.698Z,100526.50
2019-01-08T10:28:50.933Z,100522.75
2019-01-08T10:31:19.174Z,100526.50
2019-01-08T10:33:47.477Z,100531.63
2019-01-08T10:36:15.697Z,100529.56
2019-01-08T10:38:43.894Z,100533.64
2019-01-08T10:41:12.109Z,100526.98
2019-01-08T10:43:40.334Z,100537.02
2019-01-08T10:46:08.558Z,100527.33
2019-01-08T10:48:36.797Z,100533.64
2019-01-08T10:51:05.003Z,100530.42
2019-01-08T10:53:33.217Z,100531.79
2019-01-08T10:56:01.439Z,100538.07
2019-01-08T10:58:29.644Z,100530.05
2019-01-08T11:00:57.986Z,100531.63
2019-01-08T11:03:26.183Z,100525.81
2019-01-08T11:05:54.410Z,100520.89
2019-01-08T11:08:22.597Z,100524.11
2019-01-08T11:10:50.825Z,100517.30
2019-01-08T11:13:19.069Z,100515.59
2019-01-08T11:15:47.273Z,100515.94
2019-01-08T11:18:15.485Z,100512.34
2019-01-08T11:20:43.677Z,100502.97
2019-01-08T11:23:11.901Z,100508.79
2019-01-08T11:25:40.172Z,100501.11
2019-01-08T11:28:08.379Z,100497.73
2019-01-08T11:30:36.607Z,100485.79
2019-01-08T11:33:04.831Z,100478.45
2019-01-08T11:35:33.074Z,100471.30
2019-01-08T11:38:01.283Z,100477.46
2019-01-08T11:40:29.482Z,100474.52
2019-01-08T11:42:57.741Z,100476.59
2019-01-08T11:45:25.960Z,100466.03
2019-01-08T11:47:54.200Z,100455.14
2019-01-08T11:50:22.415Z,100442.39
2019-01-08T11:52:50.629Z,100439.66
2019-01-08T11:55:18.859Z,100429.79
2019-01-08T11:57:47.065Z,100428.05
2019-01-08T12:00:16.956Z,100421.62
2019-01-08T12:02:47.841Z,100413.45
2019-01-08T12:05:15.117Z,100413.45
2019-01-08T12:07:43.325Z,100408.98
2019-01-08T12:10:11.549Z,100403.91
2019-01-08T12:12:39.747Z,100402.87
2019-01-08T12:15:08.354Z,100399.45
2019-01-08T12:17:36.558Z,100403.91
2019-01-08T12:20:08.101Z,100403.54
2019-01-08T12:22:40.765Z,100398.96
2019-01-08T12:25:06.304Z,100401.69
2019-01-08T12:27:34.529Z,100407.29
2019-01-08T12:30:02.722Z,100385.00
2019-01-08T12:32:30.956Z,100401.34
2019-01-08T12:34:59.169Z,100404.07
2019-01-08T12:37:27.366Z,100397.27
2019-01-08T12:39:55.591Z,100402.18
2019-01-08T12:42:23.794Z,100401.69
2019-01-08T12:44:52.006Z,100393.67
2019-01-08T12:47:20.241Z,100389.59
2019-01-08T12:49:48.483Z,100394.01
2019-01-08T12:52:16.675Z,100384.47
2019-01-08T12:54:44.887Z,100388.06
2019-01-08T12:57:13.116Z,100377.33
2019-01-08T12:59:41.341Z,100368.66
2019-01-08T13:02:14.595Z,100381.91
2019-01-08T13:04:39.476Z,100377.33
2019-01-08T13:07:07.691Z,100372.22
2019-01-08T13:09:35.938Z,100372.37
2019-01-08T13:12:04.167Z,100383.27
2019-01-08T13:14:32.378Z,100380.05
2019-01-08T13:17:00.712Z,100373.24
2019-01-08T13:19:28.920Z,100370.86
2019-01-08T13:21:57.146Z,100369.49
2019-01-08T13:24:25.434Z,100370.02
2019-01-08T13:26:53.676Z,100370.86
2019-01-08T13:29:21.877Z,100370.52
2019-01-08T13:31:50.104Z,100364.05
2019-01-08T13:34:18.312Z,100372.22
2019-01-08T13:36:46.544Z,100363.05
2019-01-08T13:39:14.748Z,100360.33
2019-01-08T13:41:42.986Z,100364.41
2019-01-08T13:44:11.296Z,100358.59
2019-01-08T13:46:39.487Z,100359.95
2019-01-08T13:49:07.715Z,100362.69
2019-01-08T13:51:35.946Z,100359.95
2019-01-08T13:54:04.180Z,100349.06
2019-01-08T13:56:32.590Z,100355.87
2019-01-08T13:59:00.780Z,100340.23
2019-01-08T14:01:28.978Z,100351.47
2019-01-08T14:03:57.202Z,100350.48
2019-01-08T14:06:25.406Z,100346.39
2019-01-08T14:08:53.637Z,100349.11
2019-01-08T14:11:21.852Z,100339.91
2019-01-08T14:13:50.056Z,100334.96
2019-01-08T14:16:18.288Z,100345.19
2019-01-08T14:18:46.520Z,100341.94
2019-01-08T14:21:14.719Z,100343.13
2019-01-08T14:23:42.954Z,100336.00
2019-01-08T14:26:11.181Z,100332.99
2019-01-08T14:28:39.374Z,100330.61
2019-01-08T14:31:07.579Z,100328.44
2019-01-08T14:33:35.810Z,100325.83
2019-01-08T14:36:04.009Z,100330.84
2019-01-08T14:38:32.220Z,100319.89
2019-01-08T14:41:00.426Z,100331.23
2019-01-08T14:43:28.656Z,100323.20
2019-01-08T14:45:56.886Z,100322.70
2019-01-08T14:48:25.088Z,100330.18
2019-01-08T14:50:53.302Z,100320.28
2019-01-08T14:53:21.546Z,100330.84
2019-01-08T14:55:49.753Z,100333.90
2019-01-08T14:58:17.982Z,100328.81
2019-01-08T15:00:46.244Z,100340.42
2019-01-08T15:03:14.444Z,100342.45
2019-01-08T15:05:42.692Z,100347.91
2019-01-08T15:08:10.923Z,100357.44
2019-01-08T15:10:39.123Z,100357.44
2019-01-08T15:13:07.341Z,100355.09
2019-01-08T15:15:35.535Z,100348.27
2019-01-08T15:18:03.829Z,100345.88
2019-01-08T15:20:32.057Z,100349.31
2019-01-08T15:23:00.265Z,100353.03
2019-01-08T15:25:28.512Z,100343.33
2019-01-08T15:27:56.751Z,100347.95
2019-01-08T15:30:24.981Z,100348.28
2019-01-08T15:32:58.136Z,100334.66
2019-01-08T15:35:23.193Z,100331.27
2019-01-08T15:37:51.419Z,100336.72
2019-01-08T15:40:19.638Z,100334.00
2019-01-08T15:42:47.859Z,100337.40
2019-01-08T15:45:16.055Z,100335.20
2019-01-08T15:47:44.283Z,100332.65
2019-01-08T15:50:12.481Z,100329.92
2019-01-08T15:52:40.719Z,100338.44
2019-01-08T15:55:08.941Z,100338.80
2019-01-08T15:57:37.229Z,100336.41
2019-01-08T16:00:08.717Z,100338.64
2019-01-08T16:02:36.944Z,100342.20
2019-01-08T16:05:07.292Z,100342.41
2019-01-08T16:07:35.507Z,100344.27
2019-01-08T16:10:04.166Z,100341.91
2019-01-08T16:12:32.397Z,100341.91
2019-01-08T16:15:00.605Z,100346.00
2019-01-08T16:17:28.829Z,100346.34
2019-01-08T16:19:57.043Z,100356.74
2019-01-08T16:22:25.255Z,100364.77
2019-01-08T16:24:53.476Z,100367.00
2019-01-08T16:27:21.683Z,100363.77
2019-01-08T16:29:51.547Z,100361.72
2019-01-08T16:32:19.813Z,100365.47
2019-01-08T16:34:48.035Z,100379.44
2019-01-08T16:37:16.255Z,100371.64
2019-01-08T16:39:44.485Z,100370.27
2019-01-08T16:42:12.691Z,100360.80
2019-01-08T16:44:40.903Z,100349.53
2019-01-08T16:47:09.141Z,100352.96
2019-01-08T16:49:37.376Z,100353.66
2019-01-08T16:52:05.579Z,100352.14
2019-01-08T16:54:33.160Z,100348.71
2019-01-08T16:57:00.693Z,100360.23
2019-01-08T16:59:28.233Z,100355.61
2019-01-08T17:01:55.725Z,100375.73
2019-01-08T17:04:23.283Z,100386.48
2019-01-08T17:06:50.788Z,100388.02
2019-01-08T17:09:18.322Z,100381.73
2019-01-08T17:11:45.849Z,100374.62
2019-01-08T17:14:13.375Z,100354.98
2019-01-08T17:16:40.985Z,100354.31
2019-01-08T17:19:08.467Z,100356.71
2019-01-08T17:21:36.007Z,100356.57
2019-01-08T17:24:03.557Z,100347.86
2019-01-08T17:26:31.159Z,100348.05
2019-01-08T17:28:58.687Z,100349.41
2019-01-08T17:31:26.203Z,100344.29
2019-01-08T17:33:53.742Z,100336.98
2019-01-08T17:36:21.237Z,100340.64
2019-01-08T17:38:48.767Z,100337.55
2019-01-08T17:41:16.328Z,100341.48
2019-01-08T17:43:43.857Z,100342.00
2019-01-08T17:46:11.369Z,100342.66
2019-01-08T17:48:38.891Z,100343.02
2019-01-08T17:51:06.414Z,100345.06
2019-01-08T17:53:33.944Z,100366.08
2019-01-08T17:56:01.488Z,100342.52
2019-01-08T17:58:39.081Z,100344.40
2019-01-08T18:01:08.427Z,100339.30
2019-01-08T18:03:42.501Z,100340.12
2019-01-08T18:06:05.200Z,100350.72
2019-01-08T18:08:32.729Z,100354.30
2019-01-08T18:11:00.247Z,100357.70
2019-01-08T18:13:27.792Z,100360.78
2019-01-08T18:15:55.335Z,100365.91
2019-01-08T18:18:24.198Z,100367.45
2019-01-08T18:20:51.833Z,100376.34
2019-01-08T18:23:19.350Z,100364.38
2019-01-08T18:25:46.884Z,100365.75
2019-01-08T18:28:14.416Z,100368.98
2019-01-08T18:30:41.963Z,100371.37
2019-01-08T18:33:09.480Z,100368.48
2019-01-08T18:35:37.002Z,100370.70
2019-01-08T18:38:04.548Z,100370.70
2019-01-08T18:40:32.104Z,100365.58
2019-01-08T18:42:59.617Z,100363.34
2019-01-08T18:45:27.117Z,100374.80
2019-01-08T18:47:54.703Z,100374.44
2019-01-08T18:50:22.220Z,100376.34
2019-01-08T18:52:49.750Z,100377.85
2019-01-08T18:55:17.264Z,100378.05
2019-01-08T18:57:44.783Z,100381.61
2019-01-08T19:00:12.320Z,100377.02
2019-01-08T19:02:39.850Z,100382.98
2019-01-08T19:05:07.372Z,100384.53
2019-01-08T19:07:34.952Z,100378.56
2019-01-08T19:10:06.896Z,100371.90
2019-01-08T19:12:34.398Z,100376.52
2019-01-08T19:15:01.926Z,100371.21
2019-01-08T19:17:29.437Z,100372.56
2019-01-08T19:19:56.976Z,100379.57
2019-01-08T19:22:24.509Z,100381.44
2019-01-08T19:24:52.013Z,100391.19
2019-01-08T19:27:19.549Z,100383.69
2019-01-08T19:29:47.067Z,100381.80
2019-01-08T19:32:14.593Z,100365.91
2019-01-08T19:34:42.109Z,100367.45
2019-01-08T19:37:09.646Z,100353.80
2019-01-08T19:39:37.158Z,100357.03
2019-01-08T19:42:04.699Z,100357.05
2019-01-08T19:44:32.288Z,100347.80
2019-01-08T19:46:59.825Z,100355.34
2019-01-08T19:49:27.359Z,100352.95
2019-01-08T19:51:54.896Z,100351.39
2019-01-08T19:54:22.406Z,100347.30
2019-01-08T19:56:49.937Z,100357.22
2019-01-08T19:59:17.452Z,100346.97
2019-01-08T20:01:44.973Z,100354.14
2019-01-08T20:04:17.764Z,100347.47
2019-01-08T20:06:41.732Z,100342.00
2019-01-08T20:09:09.258Z,100340.97
2019-01-08T20:11:36.763Z,100351.20
2019-01-08T20:14:04.282Z,100344.55
2019-01-08T20:16:31.800Z,100345.58
2019-01-08T20:18:59.326Z,100358.04
2019-01-08T20:21:26.868Z,100351.55
2019-01-08T20:23:54.443Z,100353.72
2019-01-08T20:26:22.032Z,100358.02
2019-01-08T20:28:49.547Z,100361.77
2019-01-08T20:31:17.068Z,100352.58
2019-01-08T20:33:44.589Z,100343.52
2019-01-08T20:36:12.104Z,100342.33
2019-01-08T20:38:39.634Z,100340.95
2019-01-08T20:41:07.137Z,100340.45
2019-01-08T20:43:34.668Z,100337.03
2019-01-08T20:46:02.158Z,100338.90
2019-01-08T20:48:29.680Z,100346.59
2019-01-08T20:50:57.179Z,100341.30
2019-01-08T20:53:24.732Z,100342.66
2019-01-08T20:55:52.258Z,100339.06
2019-01-08T20:58:27.552Z,100335.11
2019-01-08T21:00:49.055Z,100340.97
2019-01-08T21:03:16.559Z,100346.03
2019-01-08T21:05:44.065Z,100353.39
2019-01-08T21:08:11.636Z,100349.97
2019-01-08T21:10:39.203Z,100359.35
2019-01-08T21:13:06.714Z,100344.34
2019-01-08T21:15:34.226Z,100335.28
2019-01-08T21:18:01.748Z,100343.28
2019-01-08T21:20:29.291Z,100336.47
2019-01-08T21:22:56.822Z,100330.14
2019-01-08T21:25:24.370Z,100328.28
2019-01-08T21:27:51.895Z,100322.13
2019-01-08T21:30:19.391Z,100316.66
2019-01-08T21:32:46.922Z,100315.64
2019-01-08T21:35:14.444Z,100318.86
2019-01-08T21:37:41.960Z,100328.95
2019-01-08T21:40:09.486Z,100320.76
2019-01-08T21:42:36.988Z,100319.03
2019-01-08T21:45:04.514Z,100317.84
2019-01-08T21:47:32.008Z,100323.99
2019-01-08T21:49:59.533Z,100319.37
2019-01-08T21:52:27.734Z,100320.03
2019-01-08T21:54:55.239Z,100329.25
2019-01-08T21:57:22.750Z,100322.10
2019-01-08T21:59:50.272Z,100324.47
2019-01-08T22:02:17.792Z,100323.80
2019-01-08T22:04:53.044Z,100318.68
2019-01-08T22:07:14.571Z,100318.84
2019-01-08T22:09:42.124Z,100305.70
2019-01-08T22:12:09.658Z,100316.61
2019-01-08T22:14:37.234Z,100309.09
2019-01-08T22:17:04.740Z,100304.84
2019-01-08T22:19:32.280Z,100298.19
2019-01-08T22:21:59.778Z,100310.47
2019-01-08T22:24:27.329Z,100307.41
2019-01-08T22:26:54.828Z,100306.03
2019-01-08T22:29:22.349Z,100306.88
2019-01-08T22:31:49.873Z,100305.34
2019-01-08T22:34:17.374Z,100306.70
2019-01-08T22:36:44.900Z,100310.43
2019-01-08T22:39:12.402Z,100323.20
2019-01-08T22:41:39.948Z,100315.19
2019-01-08T22:44:07.486Z,100300.38
2019-01-08T22:46:34.996Z,100296.95
2019-01-08T22:49:02.517Z,100294.73
2019-01-08T22:51:30.045Z,100293.73
2019-01-08T22:53:57.574Z,100297.30
2019-01-08T22:56:25.086Z,100291.50
2019-01-08T22:58:52.607Z,100295.59
2019-01-08T23:01:21.765Z,100296.77
2019-01-08T23:03:49.274Z,100300.02
2019-01-08T23:06:16.866Z,100304.45
2019-01-08T23:08:44.402Z,100298.83
2019-01-08T23:11:11.984Z,100300.85
2019-01-08T23:13:39.513Z,100299.82
2019-01-08T23:16:07.052Z,100294.03
2019-01-08T23:18:34.585Z,100301.52
2019-01-08T23:21:02.096Z,100293.83
2019-01-08T23:23:29.632Z,100288.88
2019-01-08T23:25:57.151Z,100288.55
2019-01-08T23:28:24.685Z,100297.59
2019-01-08T23:30:52.217Z,100305.94
2019-01-08T23:33:19.721Z,100310.53
2019-01-08T23:35:47.227Z,100308.33
2019-01-08T23:38:14.755Z,100291.27
2019-01-08T23:40:42.287Z,100294.50
2019-01-08T23:43:09.815Z,100297.22
2019-01-08T23:45:37.347Z,100285.32
2019-01-08T23:48:04.883Z,100288.37
2019-01-08T23:50:32.463Z,100286.48
2019-01-08T23:53:01.657Z,100279.33
2019-01-08T23:55:29.989Z,100274.20
2019-01-08T23:57:57.478Z,100280.36
